Time;durP1;ratioP1;P1;durP2;ratioP2;P2;SDS_P1;SDS_P2;PMS_P1;PMS_P2;Temp;Humidity;BMP_temperature;BMP_pressure;BME280_temperature;BME280_humidity;BME280_pressure;Samples;Min_cycle;Max_cycle;Signal;HPM_P1;HPM_P2
2022/05/29 00:02:12;;;;;;;4.97;1.20;;;;;;;15.55;42.52;100466.41;4928395;29;20231;-73
2022/05/29 00:04:42;;;;;;;6.87;1.30;;;;;;;15.52;42.74;100472.06;4927508;29;20275;-73
2022/05/29 00:07:13;;;;;;;4.87;1.67;;;;;;;15.51;42.62;100465.88;4929473;29;20216;-72
2022/05/29 00:09:44;;;;;;;5.83;1.40;;;;;;;15.54;42.62;100464.72;4927873;29;20928;-72
2022/05/29 00:12:12;;;;;;;5.20;1.43;;;;;;;15.52;42.83;100464.03;4930343;29;20230;-73
2022/05/29 00:14:42;;;;;;;5.63;1.40;;;;;;;15.54;42.60;100456.72;4928585;29;20956;-73
2022/05/29 00:17:13;;;;;;;9.47;1.77;;;;;;;15.50;42.66;100458.03;4927569;29;20284;-73
2022/05/29 00:19:44;;;;;;;6.20;1.77;;;;;;;15.48;42.79;100465.44;4926669;29;20288;-74
2022/05/29 00:22:16;;;;;;;5.47;1.40;;;;;;;15.46;42.87;100454.09;4931987;29;20220;-73
2022/05/29 00:24:45;;;;;;;5.83;1.47;;;;;;;15.49;43.02;100456.38;4929519;29;20220;-73
2022/05/29 00:27:18;;;;;;;8.03;1.73;;;;;;;15.47;43.17;100458.41;4931697;29;20280;-72
2022/05/29 00:29:47;;;;;;;5.17;1.27;;;;;;;15.42;43.04;100461.63;4928880;29;20737;-72
2022/05/29 00:32:15;;;;;;;5.10;1.47;;;;;;;15.40;43.38;100458.28;4927495;29;20305;-72
2022/05/29 00:34:43;;;;;;;7.03;2.00;;;;;;;15.38;43.58;100452.31;4929936;29;20308;-72
2022/05/29 00:37:12;;;;;;;5.80;1.40;;;;;;;15.38;43.24;100455.00;4929342;29;21386;-72
2022/05/29 00:39:40;;;;;;;7.83;1.80;;;;;;;15.33;43.72;100458.19;4932433;29;20295;-73
2022/05/29 00:42:11;;;;;;;7.93;1.57;;;;;;;15.29;43.83;100448.88;4928326;29;20214;-72
2022/05/29 00:44:42;;;;;;;4.10;1.47;;;;;;;15.23;43.75;100452.25;4927771;29;20654;-73
2022/05/29 00:47:17;;;;;;;6.10;2.13;;;;;;;15.23;44.07;100446.06;4926832;29;20216;-73
2022/05/29 00:49:48;;;;;;;7.00;1.83;;;;;;;15.24;44.11;100451.25;4926897;29;20440;-73
2022/05/29 00:52:20;;;;;;;7.37;1.70;;;;;;;15.24;43.75;100445.91;4927005;29;20243;-72
2022/05/29 00:54:53;;;;;;;11.00;1.70;;;;;;;15.22;44.01;100452.41;4928065;29;20538;-73
2022/05/29 00:57:26;;;;;;;7.93;1.70;;;;;;;15.20;44.01;100446.44;4926452;29;20244;-73
2022/05/29 00:59:56;;;;;;;8.40;1.43;;;;;;;15.17;44.11;100441.44;4931129;29;20222;-72
2022/05/29 01:02:26;;;;;;;8.10;1.70;;;;;;;15.20;44.21;100438.44;4925437;29;20658;-73
2022/05/29 01:04:54;;;;;;;6.50;1.60;;;;;;;15.25;44.21;100436.03;4927907;29;20216;-73
2022/05/29 01:07:23;;;;;;;8.40;1.80;;;;;;;15.27;44.08;100434.88;4928174;29;20255;-72
2022/05/29 01:09:54;;;;;;;9.63;2.37;;;;;;;15.23;44.37;100443.41;4931662;29;20254;-72
2022/05/29 01:12:37;;;;;;;8.70;1.60;;;;;;;15.18;44.62;100438.59;4926279;29;20279;-72
2022/05/29 01:15:13;;;;;;;8.43;1.70;;;;;;;15.18;44.50;100438.59;4928647;29;20306;-72
2022/05/29 01:17:53;;;;;;;8.13;2.00;;;;;;;15.16;44.67;100432.59;4929374;29;20748;-72
2022/05/29 01:20:46;;;;;;;10.13;1.60;;;;;;;15.14;45.43;100441.78;4927374;29;20271;-73
2022/05/29 01:23:30;;;;;;;7.30;1.83;;;;;;;15.08;45.85;100435.34;4927560;29;20243;-73
2022/05/29 01:26:18;;;;;;;8.17;2.67;;;;;;;15.10;45.88;100441.34;4931324;29;20279;-73
2022/05/29 01:28:53;;;;;;;10.40;1.90;;;;;;;15.18;45.56;100435.94;4927982;29;20247;-73
2022/05/29 01:31:34;;;;;;;5.77;1.50;;;;;;;15.06;45.89;100437.34;4928179;29;20314;-73
2022/05/29 01:34:11;;;;;;;11.43;2.30;;;;;;;15.02;45.91;100433.38;4930903;29;20267;-71
2022/05/29 01:36:46;;;;;;;7.67;2.03;;;;;;;15.03;45.88;100429.72;4929806;29;20610;-72
2022/05/29 01:39:22;;;;;;;7.07;1.70;;;;;;;15.00;45.81;100425.56;4928575;29;20502;-72
2022/05/29 01:41:56;;;;;;;9.00;2.47;;;;;;;15.00;45.74;100427.38;4928700;29;20207;-72
2022/05/29 01:44:35;;;;;;;2.67;1.07;;;;;;;14.98;45.82;100424.06;4927779;29;20658;-73
2022/05/29 01:47:08;;;;;;;8.27;1.83;;;;;;;14.97;45.84;100433.91;4928883;29;20216;-73
2022/05/29 01:49:41;;;;;;;8.80;1.80;;;;;;;15.02;46.06;100428.03;4928552;29;20269;-73
2022/05/29 01:52:15;;;;;;;6.97;1.80;;;;;;;15.02;46.15;100425.38;4928673;29;20723;-72
2022/05/29 01:54:48;;;;;;;8.03;1.73;;;;;;;15.01;46.84;100421.88;4927086;29;20207;-72
2022/05/29 01:57:20;;;;;;;7.33;1.53;;;;;;;15.02;47.32;100422.72;4927928;29;20295;-73
2022/05/29 01:59:53;;;;;;;7.50;1.67;;;;;;;14.99;47.86;100407.03;4926988;29;20349;-72
2022/05/29 02:02:29;;;;;;;5.13;1.63;;;;;;;15.00;48.24;100414.03;4927431;29;20294;-74
2022/05/29 02:05:03;;;;;;;7.20;2.17;;;;;;;14.99;48.42;100407.88;4930518;29;20204;-73
2022/05/29 02:07:50;;;;;;;7.40;2.07;;;;;;;14.95;48.58;100405.75;4929992;29;20615;-73
2022/05/29 02:10:26;;;;;;;8.83;1.90;;;;;;;14.89;48.71;100406.44;4926723;29;20308;-73
2022/05/29 02:13:01;;;;;;;10.63;1.83;;;;;;;14.82;48.62;100408.16;4928901;29;20618;-74
2022/05/29 02:15:38;;;;;;;6.33;1.67;;;;;;;14.82;48.36;100400.97;4929445;29;20222;-73
2022/05/29 02:18:14;;;;;;;6.20;1.73;;;;;;;14.79;48.43;100400.47;4931807;29;20226;-72
2022/05/29 02:20:46;;;;;;;4.40;2.00;;;;;;;14.82;48.21;100392.13;4929193;29;20246;-73
2022/05/29 02:23:21;;;;;;;7.67;2.37;;;;;;;14.78;48.23;100388.97;4927003;29;20234;-73
2022/05/29 02:25:50;;;;;;;7.07;2.00;;;;;;;14.78;48.01;100393.47;4929101;29;20215;-72
2022/05/29 02:28:25;;;;;;;7.93;1.87;;;;;;;14.73;48.07;100394.03;4927023;29;20270;-72
2022/05/29 02:31:08;;;;;;;7.17;1.57;;;;;;;14.71;47.96;100392.53;4926700;29;20251;-74
2022/05/29 02:33:46;;;;;;;4.13;1.40;;;;;;;14.63;48.12;100382.75;4928573;29;20402;-73
2022/05/29 02:36:23;;;;;;;6.67;2.03;;;;;;;14.66;47.87;100380.56;4928186;29;20567;-74
2022/05/29 02:39:08;;;;;;;8.33;1.70;;;;;;;14.68;47.87;100377.72;4927662;29;20689;-73
2022/05/29 02:41:47;;;;;;;8.57;1.60;;;;;;;14.66;47.64;100377.91;4929713;29;20204;-73
2022/05/29 02:44:26;;;;;;;9.77;1.60;;;;;;;14.62;47.86;100368.56;4927578;29;20306;-73
2022/05/29 02:47:01;;;;;;;4.13;1.60;;;;;;;14.58;47.57;100372.63;4927664;29;20673;-73
2022/05/29 02:49:35;;;;;;;7.63;1.73;;;;;;;14.55;47.70;100377.47;4927780;29;20302;-73
2022/05/29 02:52:09;;;;;;;8.57;1.70;;;;;;;14.48;47.94;100372.00;4929704;29;20233;-73
2022/05/29 02:54:37;;;;;;;7.57;1.43;;;;;;;14.47;47.98;100375.66;4927564;28;20244;-73
2022/05/29 02:57:06;;;;;;;7.13;1.90;;;;;;;14.47;47.69;100374.84;4931360;29;20601;-71
2022/05/29 02:59:39;;;;;;;7.57;1.87;;;;;;;14.47;47.66;100370.34;4931573;29;20934;-72
2022/05/29 03:02:16;;;;;;;6.40;1.50;;;;;;;14.47;47.55;100374.84;4930400;29;20757;-73
2022/05/29 03:04:56;;;;;;;9.67;2.00;;;;;;;14.43;47.62;100365.50;4934742;29;20302;-73
2022/05/29 03:07:35;;;;;;;6.53;1.80;;;;;;;14.43;47.76;100358.34;4933882;29;20204;-73
2022/05/29 03:10:12;;;;;;;6.33;1.93;;;;;;;14.40;47.65;100360.53;4932151;29;20662;-73
2022/05/29 03:12:53;;;;;;;8.13;1.90;;;;;;;14.39;47.70;100362.38;4930626;29;20220;-73
2022/05/29 03:15:39;;;;;;;9.10;1.63;;;;;;;14.32;47.88;100364.06;4928978;29;20215;-73
2022/05/29 03:18:27;;;;;;;7.57;1.77;;;;;;;14.31;48.11;100367.72;4931775;29;20616;-73
2022/05/29 03:21:04;;;;;;;9.27;1.67;;;;;;;14.27;48.19;100369.06;4935293;29;20226;-73
2022/05/29 03:23:42;;;;;;;12.20;2.07;;;;;;;14.23;48.49;100363.28;4932060;29;20218;-73
2022/05/29 03:26:20;;;;;;;9.90;1.87;;;;;;;14.23;48.63;100371.28;4931712;29;20721;-73
2022/05/29 03:28:54;;;;;;;7.80;1.70;;;;;;;14.22;48.88;100368.78;4933749;29;20606;-73
2022/05/29 03:31:26;;;;;;;5.67;1.60;;;;;;;14.21;48.69;100381.28;4932252;29;20299;-73
2022/05/29 03:33:57;;;;;;;5.63;1.50;;;;;;;14.19;48.51;100387.78;4929191;29;20314;-73
2022/05/29 03:36:35;;;;;;;10.77;1.93;;;;;;;14.13;48.75;100388.47;4928677;29;20219;-73
2022/05/29 03:39:03;;;;;;;6.87;1.40;;;;;;;14.17;48.52;100379.13;4930858;29;20213;-73
2022/05/29 03:41:39;;;;;;;10.00;1.97;;;;;;;14.17;48.73;100376.44;4930555;29;20210;-73
2022/05/29 03:44:07;;;;;;;9.13;1.63;;;;;;;14.16;48.50;100378.28;4932710;29;20207;-72
2022/05/29 03:46:35;;;;;;;7.40;1.77;;;;;;;14.14;48.71;100374.97;4928482;29;20302;-73
2022/05/29 03:49:04;;;;;;;9.37;1.97;;;;;;;14.14;48.59;100379.47;4929804;29;20216;-72
2022/05/29 03:51:32;;;;;;;5.07;1.43;;;;;;;14.14;48.50;100374.16;4928202;29;20313;-73
2022/05/29 03:54:00;;;;;;;8.30;1.70;;;;;;;14.10;48.63;100372.81;4930820;29;20228;-72
2022/05/29 03:56:28;;;;;;;4.83;1.47;;;;;;;14.08;48.48;100380.97;4927779;29;20320;-72
2022/05/29 03:58:56;;;;;;;5.90;1.60;;;;;;;14.11;48.67;100371.81;4929050;29;20662;-73
2022/05/29 04:01:24;;;;;;;7.67;1.70;;;;;;;14.09;48.87;100376.47;4927405;29;20231;-73
2022/05/29 04:03:54;;;;;;;6.50;1.87;;;;;;;14.09;48.83;100379.16;4928433;29;20208;-72
2022/05/29 04:06:26;;;;;;;8.83;1.97;;;;;;;14.09;49.02;100376.47;4929633;29;20298;-71
2022/05/29 04:14:29;;;;;;;10.17;1.70;;;;;;;13.96;49.18;100371.72;4929255;29;20309;-73
2022/05/29 04:16:57;;;;;;;6.10;1.53;;;;;;;14.00;49.24;100366.84;4927982;29;20207;-73
2022/05/29 04:19:24;;;;;;;7.73;2.00;;;;;;;14.01;49.35;100371.19;4930431;29;20218;-72
2022/05/29 04:21:53;;;;;;;10.17;2.33;;;;;;;14.09;49.63;100376.47;4929576;29;22070;-72
2022/05/29 04:24:21;;;;;;;8.03;1.57;;;;;;;14.10;49.30;100372.81;4929711;29;20249;-72
2022/05/29 04:26:50;;;;;;;5.80;1.43;;;;;;;14.14;49.09;100372.31;4928264;29;20207;-73
2022/05/29 04:29:19;;;;;;;8.97;2.20;;;;;;;14.12;49.05;100368.16;4930491;29;20242;-74
2022/05/29 04:34:36;;;;;;;9.07;1.80;;;;;;;14.07;49.79;100366.00;4929301;29;20265;-73
2022/05/29 04:37:06;;;;;;;5.27;1.43;;;;;;;14.06;50.83;100371.53;4931813;29;20400;-73
2022/05/29 04:39:36;;;;;;;8.67;1.87;;;;;;;14.01;51.54;100371.19;4931360;29;20564;-73
2022/05/29 04:42:05;;;;;;;6.93;1.63;;;;;;;13.97;52.19;100367.22;4931543;29;20215;-74
2022/05/29 04:44:34;;;;;;;5.90;1.70;;;;;;;13.92;52.71;100371.22;4929305;29;20255;-74
2022/05/29 04:47:02;;;;;;;7.70;1.83;;;;;;;13.88;53.69;100369.09;4931130;29;20233;-72
2022/05/29 04:49:31;;;;;;;9.33;1.83;;;;;;;13.84;53.73;100368.59;4932807;29;20217;-73
2022/05/29 04:51:59;;;;;;;4.77;1.60;;;;;;;13.80;54.42;100383.28;4931168;29;20330;-73
2022/05/29 04:54:28;;;;;;;5.60;1.47;;;;;;;13.79;54.82;100381.59;4929177;29;20231;-73
2022/05/29 04:56:56;;;;;;;6.20;1.70;;;;;;;13.80;54.36;100379.78;4930991;29;20232;-73
2022/05/29 04:59:24;;;;;;;7.03;2.07;;;;;;;13.80;54.77;100377.94;4929233;29;20254;-72
2022/05/29 05:01:52;;;;;;;11.53;2.07;;;;;;;13.78;55.27;100379.09;4929804;29;20215;-72
2022/05/29 05:04:20;;;;;;;9.50;1.67;;;;;;;13.77;55.33;100375.59;4932160;29;20566;-72
2022/05/29 05:06:47;;;;;;;5.83;1.80;;;;;;;13.73;55.39;100382.25;4927126;29;20236;-73
2022/05/29 05:09:15;;;;;;;5.83;1.60;;;;;;;13.69;55.15;100380.97;4928549;29;20683;-73
2022/05/29 05:11:44;;;;;;;7.40;1.40;;;;;;;13.68;56.19;100379.28;4931750;29;20230;-73
2022/05/29 05:14:12;;;;;;;6.50;2.30;;;;;;;13.78;56.33;100374.59;4930503;29;20232;-73
2022/05/29 05:16:40;;;;;;;8.70;1.57;;;;;;;13.79;56.15;100376.28;4928519;29;20214;-73
2022/05/29 05:19:08;;;;;;;10.17;1.87;;;;;;;13.92;55.24;100368.56;4929886;29;20233;-73
2022/05/29 05:21:36;;;;;;;9.30;2.23;;;;;;;13.85;55.86;100370.25;4929942;29;20304;-73
2022/05/29 05:24:09;;;;;;;8.67;2.03;;;;;;;13.80;55.52;100361.94;4932784;29;20703;-73
2022/05/29 05:26:37;;;;;;;8.60;2.23;;;;;;;13.77;55.17;100366.78;4928911;29;20305;-74
2022/05/29 05:29:08;;;;;;;13.03;1.80;;;;;;;13.84;54.60;100373.91;4931106;29;20349;-72
2022/05/29 05:31:36;;;;;;;8.43;1.67;;;;;;;13.84;54.66;100368.59;4928378;29;20243;-73
2022/05/29 05:34:04;;;;;;;10.43;2.70;;;;;;;13.84;54.26;100363.25;4930472;29;20324;-72
2022/05/29 05:36:32;;;;;;;10.90;1.67;;;;;;;13.86;53.87;100377.25;4931561;29;20213;-72
2022/05/29 05:39:00;;;;;;;5.40;1.73;;;;;;;13.90;53.85;100372.38;4934695;29;20239;-72
2022/05/29 05:41:28;;;;;;;6.73;1.60;;;;;;;13.90;53.94;100367.88;4933153;29;20207;-73
2022/05/29 05:44:00;;;;;;;5.57;1.70;;;;;;;13.89;53.64;100360.09;4930321;29;20226;-72
2022/05/29 05:46:32;;;;;;;12.03;2.37;;;;;;;14.01;54.06;100368.53;4929211;29;20257;-72
2022/05/29 05:49:01;;;;;;;6.27;1.77;;;;;;;14.08;54.48;100372.97;4931559;29;20249;-73
2022/05/29 05:51:31;;;;;;;11.20;2.60;;;;;;;14.15;53.53;100360.66;4934040;29;20599;-73
2022/05/29 05:53:59;;;;;;;8.30;1.80;;;;;;;14.23;52.88;100363.28;4929067;29;20210;-74
2022/05/29 05:56:27;;;;;;;8.77;1.80;;;;;;;14.28;52.46;100366.22;4932404;29;20233;-73
2022/05/29 05:58:55;;;;;;;5.43;1.57;;;;;;;14.29;51.83;100370.56;4930853;29;20215;-73
2022/05/29 06:01:22;;;;;;;8.37;1.67;;;;;;;14.33;51.76;100368.41;4930920;29;20230;-73
2022/05/29 06:03:58;;;;;;;5.97;1.40;;;;;;;14.34;50.76;100378.03;4932087;29;20271;-73
2022/05/29 06:06:26;;;;;;;12.07;2.30;;;;;;;14.42;50.60;100378.06;4932184;29;20262;-73
2022/05/29 06:08:55;;;;;;;10.27;2.23;;;;;;;14.47;50.74;100370.34;4934771;29;20208;-73
2022/05/29 06:11:23;;;;;;;7.57;1.60;;;;;;;14.61;50.06;100374.06;4929155;29;20220;-73
2022/05/29 06:13:51;;;;;;;9.30;2.13;;;;;;;14.69;49.96;100376.69;4929925;29;20720;-73
2022/05/29 06:16:19;;;;;;;10.63;1.70;;;;;;;14.80;49.48;100378.13;4928659;29;20267;-73
2022/05/29 06:18:47;;;;;;;6.53;1.70;;;;;;;14.82;49.24;100379.63;4929825;29;20219;-73
2022/05/29 06:21:16;;;;;;;8.37;1.50;;;;;;;14.89;49.30;100382.41;4927568;29;20262;-72
2022/05/29 06:23:45;;;;;;;8.70;1.67;;;;;;;14.96;49.07;100375.34;4928769;29;20223;-71
2022/05/29 06:26:13;;;;;;;8.63;1.50;;;;;;;15.02;48.51;100379.97;4927458;29;20207;-71
2022/05/29 06:28:42;;;;;;;7.67;2.13;;;;;;;15.06;48.39;100386.59;4927563;29;20270;-72
2022/05/29 06:31:12;;;;;;;10.17;1.87;;;;;;;15.17;48.43;100386.19;4932513;29;20749;-72
2022/05/29 06:33:40;;;;;;;5.37;1.40;;;;;;;15.29;49.03;100387.44;4933319;29;20551;-72
2022/05/29 06:36:11;;;;;;;11.13;2.40;;;;;;;15.33;47.94;100383.38;4932705;29;20580;-72
2022/05/29 06:38:41;;;;;;;6.40;1.60;;;;;;;15.46;47.81;100387.28;4933815;29;20232;-72
2022/05/29 06:41:11;;;;;;;5.70;1.47;;;;;;;15.52;47.86;100386.53;4933672;29;20617;-72
2022/05/29 06:43:40;;;;;;;5.57;2.13;;;;;;;15.58;47.60;100385.84;4928020;29;20623;-72
2022/05/29 06:46:09;;;;;;;6.93;1.77;;;;;;;15.59;47.36;100387.50;4934221;29;20653;-73
2022/05/29 06:48:38;;;;;;;7.30;2.20;;;;;;;15.65;47.36;100386.78;4934036;29;20224;-72
2022/05/29 06:51:07;;;;;;;4.93;1.67;;;;;;;15.61;47.61;100380.13;4930617;29;20213;-72
2022/05/29 06:53:38;;;;;;;10.73;2.10;;;;;;;15.51;47.27;100383.03;4932414;29;20216;-72
2022/05/29 06:56:08;;;;;;;10.23;2.40;;;;;;;15.41;47.78;100377.94;4930508;29;20885;-73
2022/05/29 06:58:36;;;;;;;7.97;1.70;;;;;;;15.36;48.06;100382.19;4934650;29;20298;-73
2022/05/29 07:07:00;;;;;;;8.73;2.37;;;;;;;15.41;48.69;100379.78;4931382;29;20223;-72
2022/05/29 07:09:29;;;;;;;6.70;2.10;;;;;;;15.42;48.36;100382.28;4929906;29;20275;-72
2022/05/29 07:12:05;;;;;;;10.60;2.63;;;;;;;15.54;48.91;100387.22;4931075;29;20511;-72
2022/05/29 07:14:34;;;;;;;11.73;2.23;;;;;;;15.59;48.84;100393.69;4928800;29;20215;-72
2022/05/29 07:17:01;;;;;;;12.73;2.20;;;;;;;15.68;48.74;100391.75;4933258;29;20240;-72
2022/05/29 07:19:29;;;;;;;8.63;2.03;;;;;;;15.70;48.36;100387.88;4930050;29;20223;-73
2022/05/29 07:21:58;;;;;;;6.93;2.00;;;;;;;15.77;47.54;100379.97;4933014;29;20221;-73
2022/05/29 07:24:28;;;;;;;8.37;1.77;;;;;;;15.70;47.68;100384.38;4929538;29;20251;-72
2022/05/29 07:26:56;;;;;;;7.87;2.03;;;;;;;15.73;47.40;100389.38;4930056;29;20641;-71
2022/05/29 07:29:26;;;;;;;6.33;2.10;;;;;;;15.60;47.90;100389.16;4935206;29;20249;-71
2022/05/29 07:31:55;;;;;;;8.37;2.20;;;;;;;15.58;48.11;100393.84;4932308;29;20581;-73
2022/05/29 07:34:24;;;;;;;13.20;2.20;;;;;;;15.53;47.56;100389.03;4929692;29;21029;-72
2022/05/29 07:36:52;;;;;;;7.80;1.70;;;;;;;15.54;47.55;100388.06;4930845;29;20318;-73
2022/05/29 07:39:21;;;;;;;10.27;1.70;;;;;;;15.47;47.62;100388.94;4930838;29;20207;-71
2022/05/29 07:44:42;;;;;;;6.57;1.47;;;;;;;15.62;47.82;100387.16;4930222;29;20212;-73
2022/05/29 07:47:10;;;;;;;7.07;1.67;;;;;;;15.73;47.35;100389.38;4928752;29;20547;-72
2022/05/29 07:49:39;;;;;;;3.20;1.30;;;;;;;15.88;47.09;100384.03;4931380;29;20208;-72
2022/05/29 07:52:07;;;;;;;9.57;1.90;;;;;;;15.93;46.79;100379.78;4926081;29;20335;-72
2022/05/29 07:54:35;;;;;;;6.47;1.40;;;;;;;15.91;46.61;100381.00;4932200;29;20554;-72
2022/05/29 07:57:04;;;;;;;7.20;1.60;;;;;;;15.87;46.71;100391.22;4931656;29;20286;-72
2022/05/29 07:59:34;;;;;;;5.37;1.47;;;;;;;15.92;46.84;100378.09;4928485;29;20214;-73
2022/05/29 08:02:09;;;;;;;5.67;1.70;;;;;;;16.03;46.09;100383.00;4925020;29;20550;-72
2022/05/29 08:04:40;;;;;;;4.70;1.50;;;;;;;16.07;46.14;100381.63;4929384;29;20228;-73
2022/05/29 08:07:08;;;;;;;7.03;1.67;;;;;;;16.19;45.95;100385.47;4929885;29;20239;-73
2022/05/29 08:09:39;;;;;;;6.70;2.10;;;;;;;16.21;45.51;100387.97;4930580;29;20295;-73
2022/05/29 08:12:15;;;;;;;4.23;1.60;;;;;;;16.13;44.61;100396.09;4930554;29;20217;-72
2022/05/29 08:14:43;;;;;;;4.80;1.13;;;;;;;16.05;44.82;100386.31;4928646;29;20705;-73
2022/05/29 08:17:12;;;;;;;6.27;1.67;;;;;;;16.01;44.77;100390.38;4931475;29;20252;-73
2022/05/29 08:19:40;;;;;;;7.80;1.60;;;;;;;16.02;45.20;100383.19;4933054;29;20240;-72
2022/05/29 08:22:08;;;;;;;3.07;1.17;;;;;;;15.97;45.24;100378.41;4929505;29;20222;-72
2022/05/29 08:30:41;;;;;;;7.00;1.40;;;;;;;16.47;44.35;100372.22;4930907;29;20704;-72
2022/05/29 08:33:13;;;;;;;6.63;1.20;;;;;;;16.72;43.07;100362.03;4931642;29;20208;-72
2022/05/29 08:35:43;;;;;;;5.57;1.40;;;;;;;16.92;43.77;100365.72;4931632;29;20701;-72
2022/05/29 08:38:13;;;;;;;7.37;1.37;;;;;;;17.09;43.48;100362.78;4935491;29;20235;-71
2022/05/29 08:40:46;;;;;;;7.60;1.23;;;;;;;17.26;41.95;100361.50;4933832;29;20208;-72
2022/05/29 08:43:19;;;;;;;4.73;1.40;;;;;;;17.28;42.50;100364.81;4936788;29;20215;-73
2022/05/29 08:45:50;;;;;;;8.17;1.40;;;;;;;17.26;41.49;100366.84;4935516;29;20312;-73
2022/05/29 08:48:27;;;;;;;5.63;1.30;;;;;;;17.20;41.54;100370.31;4933957;29;20369;-72
2022/05/29 08:51:21;;;;;;;7.80;1.50;;;;;;;17.25;41.90;100359.81;4933796;29;20692;-71
2022/05/29 08:53:55;;;;;;;4.87;0.90;;;;;;;17.32;41.01;100357.22;4927100;29;20692;-72
2022/05/29 08:56:30;;;;;;;7.00;1.17;;;;;;;17.39;40.76;100358.94;4932003;29;20255;-71
2022/05/29 08:59:07;;;;;;;9.33;1.47;;;;;;;17.49;40.19;100362.09;4935708;29;20208;-73
2022/05/29 09:01:55;;;;;;;4.60;1.30;;;;;;;17.47;40.46;100364.13;4932636;29;20247;-73
2022/05/29 09:04:31;;;;;;;5.43;1.37;;;;;;;17.34;39.86;100352.47;4929500;29;20638;-72
2022/05/29 09:07:03;;;;;;;5.80;1.10;;;;;;;17.21;40.51;100362.09;4929707;29;20212;-72
2022/05/29 09:09:38;;;;;;;4.23;1.23;;;;;;;17.09;40.24;100352.91;4930511;29;20240;-72
2022/05/29 09:12:11;;;;;;;5.70;1.17;;;;;;;16.95;39.71;100355.66;4929368;29;20255;-73
2022/05/29 09:14:49;;;;;;;4.93;1.37;;;;;;;16.82;38.87;100348.31;4929295;29;20216;-73
2022/05/29 09:17:24;;;;;;;4.77;1.10;;;;;;;16.72;38.44;100356.66;4928800;29;20262;-69
2022/05/29 09:20:02;;;;;;;6.10;1.37;;;;;;;16.70;39.70;100350.69;4927815;29;20670;-69
2022/05/29 09:22:35;;;;;;;6.67;1.30;;;;;;;16.88;40.18;100348.41;4925497;29;20343;-71
2022/05/29 09:25:08;;;;;;;9.20;1.57;;;;;;;17.00;40.24;100346.03;4931306;29;20279;-69
2022/05/29 09:27:38;;;;;;;4.63;1.10;;;;;;;17.06;38.79;100344.44;4928523;29;20217;-68
2022/05/29 09:30:08;;;;;;;5.03;1.20;;;;;;;17.15;37.19;100333.38;4927037;29;20310;-69
2022/05/29 09:32:47;;;;;;;2.73;0.80;;;;;;;17.12;35.65;100338.31;4928041;29;20228;-72
2022/05/29 09:35:25;;;;;;;3.67;1.13;;;;;;;17.15;37.03;100335.25;4929226;29;20235;-72
2022/05/29 09:38:02;;;;;;;3.97;1.20;;;;;;;17.13;37.02;100335.44;4929986;29;20204;-71
2022/05/29 09:40:33;;;;;;;5.67;1.30;;;;;;;17.09;37.54;100331.47;4929783;29;20243;-72
2022/05/29 09:43:14;;;;;;;3.80;0.93;;;;;;;17.07;37.01;100330.81;4934684;29;20310;-72
2022/05/29 09:45:42;;;;;;;4.10;1.03;;;;;;;17.05;37.20;100337.41;4937030;29;20243;-73
2022/05/29 09:51:15;;;;;;;2.13;0.70;;;;;;;16.98;36.71;100328.47;4931267;29;20667;-71
2022/05/29 09:53:48;;;;;;;3.87;0.90;;;;;;;16.90;37.57;100324.91;4930111;29;20599;-72
2022/05/29 09:56:29;;;;;;;5.73;1.07;;;;;;;16.81;38.22;100326.06;4933940;29;20248;-71
2022/05/29 09:59:01;;;;;;;6.00;1.10;;;;;;;16.83;38.63;100325.88;4932872;29;20579;-72
2022/05/29 10:01:33;;;;;;;6.40;1.30;;;;;;;17.02;39.17;100322.56;4926036;29;20214;-71
2022/05/29 10:04:12;;;;;;;7.00;1.10;;;;;;;17.26;38.35;100315.94;4927721;29;20235;-72
2022/05/29 10:06:42;;;;;;;4.60;0.97;;;;;;;17.38;37.28;100318.91;4928599;29;20249;-68
2022/05/29 10:09:15;;;;;;;4.13;1.03;;;;;;;17.26;36.26;100314.09;4930830;29;20242;-71
2022/05/29 10:11:45;;;;;;;5.30;1.20;;;;;;;17.13;35.97;100318.53;4927025;29;20218;-70
2022/05/29 10:14:39;;;;;;;2.93;0.83;;;;;;;17.07;36.65;100308.56;4927611;29;20332;-69
2022/05/29 10:17:13;;;;;;;3.63;0.90;;;;;;;17.05;36.21;100302.59;4909030;29;20378;-71
2022/05/29 10:19:43;;;;;;;3.63;1.13;;;;;;;16.99;36.23;100311.38;4929825;29;20217;-73
2022/05/29 10:22:20;;;;;;;7.67;1.00;;;;;;;16.88;36.90;100305.56;4929433;29;20220;-70
2022/05/29 10:24:48;;;;;;;2.63;1.00;;;;;;;16.85;37.27;100310.47;4930951;29;20231;-73
2022/05/29 10:27:30;;;;;;;3.57;0.97;;;;;;;16.87;38.44;100306.56;4930227;29;20216;-71
2022/05/29 10:30:00;;;;;;;5.10;0.67;;;;;;;16.95;38.88;100310.13;4928426;29;20248;-71
2022/05/29 10:32:31;;;;;;;4.10;0.70;;;;;;;16.96;38.95;100309.13;4926957;29;20259;-71
2022/05/29 10:35:14;;;;;;;3.13;0.93;;;;;;;16.97;38.56;100303.56;4932601;29;20255;-71
2022/05/29 10:37:46;;;;;;;2.93;0.90;;;;;;;17.02;38.65;100294.94;4934856;29;20660;-71
2022/05/29 10:40:25;;;;;;;3.23;0.90;;;;;;;16.93;39.07;100299.59;4928520;29;20234;-73
2022/05/29 10:42:56;;;;;;;2.43;0.70;;;;;;;16.95;39.17;100291.38;4929832;29;20314;-72
2022/05/29 10:45:26;;;;;;;5.03;1.00;;;;;;;16.91;38.92;100286.41;4924782;29;20265;-73
2022/05/29 10:48:09;;;;;;;2.70;0.90;;;;;;;16.93;38.06;100287.03;4930158;29;20208;-73
2022/05/29 10:50:53;;;;;;;3.50;1.00;;;;;;;16.95;38.71;100284.19;4928268;29;20216;-74
2022/05/29 10:53:44;;;;;;;4.33;1.00;;;;;;;17.09;38.30;100279.75;4926773;29;20717;-74
2022/05/29 10:56:24;;;;;;;5.23;0.80;;;;;;;17.23;38.63;100281.50;4932800;29;20288;-74
2022/05/29 10:59:29;;;;;;;3.93;1.23;;;;;;;17.36;37.97;100275.38;4928504;29;20624;-73
2022/05/29 11:05:17;;;;;;;3.20;1.00;;;;;;;17.44;37.28;100261.81;4928249;29;20679;-73
2022/05/29 11:07:59;;;;;;;2.37;0.90;;;;;;;17.70;36.33;100256.63;4928003;29;20295;-73
2022/05/29 11:10:55;;;;;;;3.80;1.00;;;;;;;18.19;35.83;100266.31;4930451;29;20204;-73
2022/05/29 11:13:50;;;;;;;3.57;1.00;;;;;;;18.49;33.80;100258.72;4930858;29;20262;-70
2022/05/29 11:16:25;;;;;;;5.03;0.97;;;;;;;18.62;32.94;100258.78;4929019;29;20243;-71
2022/05/29 11:19:08;;;;;;;4.93;0.90;;;;;;;18.49;33.02;100250.66;4928770;29;20326;-70
2022/05/29 11:21:52;;;;;;;5.93;1.13;;;;;;;18.39;33.90;100249.22;4938059;29;20209;-69
2022/05/29 11:24:39;;;;;;;4.43;1.07;;;;;;;18.26;34.03;100241.16;4934557;29;20567;-71
2022/05/29 11:27:28;;;;;;;4.00;1.07;;;;;;;18.08;34.58;100250.81;4930650;29;20688;-73
2022/05/29 11:30:05;;;;;;;4.77;1.33;;;;;;;17.94;35.14;100249.94;4936198;29;20318;-71
2022/05/29 11:32:59;;;;;;;3.70;0.90;;;;;;;17.86;35.30;100242.03;4934924;29;20200;-71
2022/05/29 11:35:53;;;;;;;9.93;1.27;;;;;;;17.76;36.12;100238.94;4929108;29;20224;-72
2022/05/29 11:38:52;;;;;;;3.60;1.00;;;;;;;17.98;34.16;100237.78;4934326;29;20275;-72
2022/05/29 11:41:30;;;;;;;4.40;1.03;;;;;;;18.27;33.53;100226.69;4918100;29;20725;-72
2022/05/29 11:44:05;;;;;;;3.73;1.33;;;;;;;18.54;32.98;100226.72;4934873;29;20297;-72
2022/05/29 11:52:28;;;;;;;3.43;0.87;;;;;;;18.95;32.64;100208.56;4933969;29;20220;-72
2022/05/29 11:55:03;;;;;;;4.40;1.00;;;;;;;19.21;32.76;100206.84;4932109;29;20301;-73
2022/05/29 11:57:40;;;;;;;2.97;1.20;;;;;;;19.36;31.05;100204.75;4931088;29;20644;-72
2022/05/29 12:00:25;;;;;;;3.80;0.83;;;;;;;19.58;29.96;100194.56;4936905;29;20226;-70
2022/05/29 12:03:01;;;;;;;4.70;0.90;;;;;;;19.54;30.83;100191.47;4933197;29;20221;-70
2022/05/29 12:05:33;;;;;;;1.97;0.80;;;;;;;19.50;31.35;100184.88;4932817;29;20239;-74
2022/05/29 12:08:09;;;;;;;5.10;0.90;;;;;;;19.50;31.39;100183.03;4931993;29;20255;-73
2022/05/29 12:10:55;;;;;;;4.50;1.17;;;;;;;19.27;30.98;100195.25;4929484;29;20222;-73
2022/05/29 12:13:30;;;;;;;6.97;1.00;;;;;;;19.05;32.57;100198.22;4928776;29;20384;-72
2022/05/29 12:16:07;;;;;;;5.67;1.20;;;;;;;18.89;33.03;100189.78;4934878;29;20267;-73
2022/05/29 12:18:53;;;;;;;4.30;1.10;;;;;;;18.72;32.89;100194.75;4933417;29;20231;-73
2022/05/29 12:21:28;;;;;;;2.13;0.93;;;;;;;18.64;33.59;100193.09;4931960;29;20216;-72
2022/05/29 12:24:02;;;;;;;4.03;1.20;;;;;;;18.64;32.55;100190.41;4932517;29;20212;-73
2022/05/29 12:26:45;;;;;;;3.50;1.00;;;;;;;18.72;32.44;100175.94;4934260;29;20298;-72
2022/05/29 12:29:19;;;;;;;3.53;1.00;;;;;;;18.74;32.40;100181.91;4932885;29;20319;-73